Time;durP1;ratioP1;P1;durP2;ratioP2;P2;SDS_P1;SDS_P2;PMS_P1;PMS_P2;Temp;Humidity;BMP_temperature;BMP_pressure;BME280_temperature;BME280_humidity;BME280_pressure;Samples;Min_cycle;Max_cycle;Signal;HPM_P1;HPM_P2
2022/11/21 00:00:51;;;;;;;0.63;0.30;;;5.60;99.90;;;;;;5036002;28;20029;-73
2022/11/21 00:03:17;;;;;;;0.60;0.30;;;5.60;99.90;;;;;;5031040;28;20029;-73
2022/11/21 00:05:49;;;;;;;1.90;0.32;;;5.60;99.90;;;;;;5037951;28;20022;-73
2022/11/21 00:08:18;;;;;;;1.23;0.60;;;5.60;99.90;;;;;;5038753;28;20029;-75
2022/11/21 00:10:44;;;;;;;0.77;0.40;;;5.60;99.90;;;;;;5029021;28;20160;-73
2022/11/21 00:13:15;;;;;;;1.40;0.45;;;5.60;99.90;;;;;;5037907;28;20025;-75
2022/11/21 00:15:41;;;;;;;0.68;0.30;;;5.60;99.90;;;;;;5036448;28;20025;-75
2022/11/21 00:18:07;;;;;;;1.30;0.50;;;5.60;99.90;;;;;;5038133;28;20017;-75
2022/11/21 00:20:35;;;;;;;1.05;0.30;;;5.60;99.90;;;;;;5038663;28;20079;-75
2022/11/21 00:23:10;;;;;;;1.98;0.75;;;5.50;99.90;;;;;;5038301;28;20021;-75
2022/11/21 00:25:37;;;;;;;0.90;0.50;;;5.50;99.90;;;;;;5034715;28;20025;-74
2022/11/21 00:28:06;;;;;;;3.33;0.68;;;5.50;99.90;;;;;;5022730;28;20018;-73
2022/11/21 00:30:32;;;;;;;3.28;0.60;;;5.50;99.90;;;;;;5039172;28;20028;-73
2022/11/21 00:33:00;;;;;;;1.20;0.57;;;5.50;99.90;;;;;;5039863;28;20477;-72
2022/11/21 00:35:34;;;;;;;2.58;0.50;;;5.50;99.90;;;;;;5039513;28;20425;-73
2022/11/21 00:38:00;;;;;;;3.15;0.60;;;5.50;99.90;;;;;;5042050;28;20473;-75
2022/11/21 00:40:32;;;;;;;1.35;0.40;;;5.50;99.90;;;;;;5038941;28;20030;-72
2022/11/21 00:43:01;;;;;;;2.08;0.52;;;5.50;99.90;;;;;;5038870;28;20028;-74
2022/11/21 00:45:26;;;;;;;1.92;0.50;;;5.50;99.90;;;;;;5041602;28;20482;-75
2022/11/21 00:47:52;;;;;;;4.82;0.85;;;5.40;99.90;;;;;;5031507;28;20056;-75
2022/11/21 00:50:20;;;;;;;3.40;0.50;;;5.40;99.90;;;;;;5029489;28;20044;-75
2022/11/21 00:52:46;;;;;;;2.92;0.70;;;5.40;99.90;;;;;;5028077;28;20033;-74
2022/11/21 00:55:11;;;;;;;1.20;0.50;;;5.40;99.90;;;;;;5031959;28;20119;-74
2022/11/21 00:57:37;;;;;;;1.55;0.47;;;5.40;99.90;;;;;;5028247;28;20454;-74
2022/11/21 01:00:04;;;;;;;2.25;0.80;;;5.40;99.90;;;;;;5024880;28;20029;-74
2022/11/21 01:02:31;;;;;;;1.75;0.50;;;5.40;99.90;;;;;;5028964;28;20038;-74
2022/11/21 01:04:57;;;;;;;2.63;0.63;;;5.40;99.90;;;;;;5025182;28;20025;-76
2022/11/21 01:07:22;;;;;;;1.60;0.52;;;5.30;99.90;;;;;;5032972;28;20034;-75
2022/11/21 01:09:48;;;;;;;3.65;0.68;;;5.30;99.90;;;;;;5025485;28;20042;-75
2022/11/21 01:12:14;;;;;;;1.50;0.30;;;5.30;99.90;;;;;;5027838;28;20029;-75
2022/11/21 01:14:39;;;;;;;1.13;0.40;;;5.30;99.90;;;;;;5028714;28;20087;-75
2022/11/21 01:17:05;;;;;;;1.50;0.40;;;5.30;99.90;;;;;;5028406;28;20167;-74
2022/11/21 01:19:31;;;;;;;1.13;0.47;;;5.30;99.90;;;;;;5030573;28;20025;-74
2022/11/21 01:21:56;;;;;;;5.70;0.82;;;5.40;99.90;;;;;;5032556;28;20037;-74
2022/11/21 01:24:25;;;;;;;2.78;0.40;;;5.40;99.90;;;;;;5025521;28;20240;-73
2022/11/21 01:26:52;;;;;;;1.33;0.55;;;5.40;99.90;;;;;;5027414;28;20040;-73
2022/11/21 01:29:21;;;;;;;1.42;0.55;;;5.40;99.90;;;;;;5027569;28;20052;-74
2022/11/21 01:31:46;;;;;;;6.43;0.80;;;5.40;99.90;;;;;;5026656;28;20041;-74
2022/11/21 01:34:15;;;;;;;2.55;0.70;;;5.50;99.90;;;;;;5026475;28;20026;-74
2022/11/21 01:36:41;;;;;;;3.80;0.50;;;5.50;99.90;;;;;;5026883;28;20025;-74
2022/11/21 01:39:12;;;;;;;2.28;0.52;;;5.50;99.90;;;;;;5032844;28;20027;-74
2022/11/21 01:41:41;;;;;;;2.88;0.50;;;5.50;99.90;;;;;;5028546;28;20513;-74
2022/11/21 01:44:12;;;;;;;3.22;0.90;;;5.60;99.90;;;;;;5024903;28;20116;-74
2022/11/21 01:46:41;;;;;;;1.90;0.55;;;5.60;99.90;;;;;;5027642;28;20498;-74
2022/11/21 01:49:20;;;;;;;4.82;0.50;;;5.60;99.90;;;;;;5033822;28;20032;-74
2022/11/21 01:52:08;;;;;;;3.28;0.60;;;5.60;99.90;;;;;;5028204;28;20029;-74
2022/11/21 01:55:12;;;;;;;1.92;0.60;;;5.60;99.90;;;;;;5031274;28;20033;-73
2022/11/21 01:57:41;;;;;;;1.88;0.82;;;5.70;99.90;;;;;;4985924;28;20395;-73
2022/11/21 02:00:26;;;;;;;4.13;0.80;;;5.70;99.90;;;;;;4997685;28;20400;-73
2022/11/21 02:02:55;;;;;;;4.82;0.98;;;5.70;99.90;;;;;;5004491;28;20188;-73
2022/11/21 02:05:26;;;;;;;7.13;0.90;;;5.70;99.90;;;;;;5024970;28;20393;-75
2022/11/21 02:07:56;;;;;;;2.13;0.50;;;5.70;99.90;;;;;;5023036;28;20024;-73
2022/11/21 02:10:22;;;;;;;3.17;0.80;;;5.70;99.90;;;;;;5025997;28;20075;-75
2022/11/21 02:12:52;;;;;;;5.00;0.52;;;5.70;99.90;;;;;;5028511;28;20036;-74
2022/11/21 02:15:21;;;;;;;4.07;0.77;;;5.80;99.90;;;;;;5036170;28;20490;-74
2022/11/21 02:17:46;;;;;;;3.72;0.75;;;5.70;99.90;;;;;;5020623;28;20541;-74
2022/11/21 02:20:21;;;;;;;4.15;0.93;;;5.80;99.90;;;;;;5029845;28;20109;-73
2022/11/21 02:23:23;;;;;;;3.25;1.02;;;5.70;99.90;;;;;;5022255;28;20017;-74
2022/11/21 02:25:50;;;;;;;3.75;0.65;;;5.70;99.90;;;;;;5028094;28;20446;-74
2022/11/21 02:28:19;;;;;;;6.00;0.73;;;5.70;99.90;;;;;;5028632;28;20029;-74
2022/11/21 02:30:45;;;;;;;4.13;0.50;;;5.70;99.90;;;;;;5032618;28;20035;-75
2022/11/21 02:33:11;;;;;;;3.03;0.70;;;5.60;99.90;;;;;;5030049;28;20107;-73
2022/11/21 02:35:38;;;;;;;5.57;0.60;;;5.60;99.90;;;;;;5032390;28;20017;-74
2022/11/21 02:38:19;;;;;;;4.80;0.63;;;5.50;99.90;;;;;;5032985;28;20100;-76
2022/11/21 02:41:11;;;;;;;3.80;0.80;;;5.50;99.90;;;;;;5033682;28;20477;-74
2022/11/21 02:43:40;;;;;;;3.10;0.60;;;5.50;99.90;;;;;;5031042;28;20056;-77
2022/11/21 02:46:05;;;;;;;3.72;0.90;;;5.60;99.90;;;;;;5032964;28;20025;-77
2022/11/21 02:48:36;;;;;;;4.05;0.77;;;5.60;99.90;;;;;;5025255;28;20375;-74
2022/11/21 02:51:02;;;;;;;3.45;1.20;;;5.50;99.90;;;;;;5024759;28;20029;-74
2022/11/21 02:53:33;;;;;;;5.47;1.52;;;5.50;99.90;;;;;;5028571;28;20036;-74
2022/11/21 02:55:59;;;;;;;1.45;0.85;;;5.50;99.90;;;;;;5028510;28;20389;-72
2022/11/21 02:58:24;;;;;;;4.75;0.65;;;5.50;99.90;;;;;;5029319;28;20030;-76
2022/11/21 03:00:50;;;;;;;2.22;0.70;;;5.50;99.90;;;;;;5028979;28;20037;-76
2022/11/21 03:03:18;;;;;;;4.28;1.17;;;5.50;99.90;;;;;;5023599;28;20029;-75
2022/11/21 03:05:44;;;;;;;3.28;0.95;;;5.50;99.90;;;;;;5020930;28;20112;-75
2022/11/21 03:08:10;;;;;;;3.50;0.63;;;5.50;99.90;;;;;;5023104;28;20124;-75
2022/11/21 03:10:38;;;;;;;1.73;0.45;;;5.50;99.90;;;;;;5028867;28;20025;-76
2022/11/21 03:13:04;;;;;;;1.45;0.40;;;5.40;99.90;;;;;;5027517;28;20021;-76
2022/11/21 03:15:32;;;;;;;1.58;0.50;;;5.40;99.90;;;;;;5026511;28;20367;-76
2022/11/21 03:17:59;;;;;;;1.20;0.40;;;5.40;99.90;;;;;;5027320;28;20431;-76
2022/11/21 03:20:33;;;;;;;2.45;0.38;;;5.40;99.90;;;;;;5027026;28;20024;-76
2022/11/21 03:23:02;;;;;;;2.15;0.57;;;5.40;99.90;;;;;;5027255;28;20056;-76
2022/11/21 03:25:30;;;;;;;2.15;0.40;;;5.30;99.90;;;;;;5027643;28;20033;-77
2022/11/21 03:27:56;;;;;;;0.65;0.30;;;5.40;99.90;;;;;;5026990;28;20029;-75
2022/11/21 03:30:28;;;;;;;1.45;0.40;;;5.40;99.90;;;;;;5030904;28;20500;-75
2022/11/21 03:32:57;;;;;;;1.33;0.20;;;5.40;99.90;;;;;;5022254;28;20446;-75
2022/11/21 03:35:24;;;;;;;1.17;0.40;;;5.40;99.90;;;;;;5023879;28;20061;-75
2022/11/21 03:37:49;;;;;;;0.43;0.20;;;5.40;99.90;;;;;;5023707;28;20033;-75
2022/11/21 03:40:18;;;;;;;1.10;0.40;;;5.40;99.90;;;;;;5026857;28;20044;-75
2022/11/21 03:42:43;;;;;;;1.23;0.30;;;5.40;99.90;;;;;;5028524;28;20025;-74
2022/11/21 03:45:09;;;;;;;3.00;0.30;;;5.40;99.90;;;;;;5026467;28;20176;-75
2022/11/21 03:47:35;;;;;;;1.55;0.30;;;5.40;99.90;;;;;;5030203;28;20030;-76
2022/11/21 03:50:00;;;;;;;0.82;0.30;;;5.40;99.90;;;;;;5021338;28;20441;-76
2022/11/21 03:52:26;;;;;;;1.48;0.30;;;5.40;99.90;;;;;;5022620;28;20487;-75
2022/11/21 03:54:51;;;;;;;0.43;0.30;;;5.40;99.90;;;;;;5024663;28;20032;-75
2022/11/21 03:57:17;;;;;;;0.40;0.20;;;5.50;99.90;;;;;;5026911;28;20135;-75
2022/11/21 03:59:43;;;;;;;0.93;0.43;;;5.50;99.90;;;;;;5031860;28;20030;-75
2022/11/21 04:02:08;;;;;;;0.50;0.20;;;5.50;99.90;;;;;;5030260;28;20029;-75
2022/11/21 04:04:37;;;;;;;0.55;0.43;;;5.50;99.90;;;;;;5014211;28;20820;-74
2022/11/21 04:07:03;;;;;;;1.05;0.40;;;5.50;99.90;;;;;;5021385;28;20029;-75
2022/11/21 04:09:28;;;;;;;0.50;0.20;;;5.50;99.90;;;;;;5022523;28;20405;-74
2022/11/21 04:11:54;;;;;;;0.35;0.20;;;5.50;99.90;;;;;;5025855;28;20030;-74
2022/11/21 04:14:25;;;;;;;0.73;0.30;;;5.50;99.90;;;;;;5023958;28;20030;-75
2022/11/21 04:16:51;;;;;;;0.80;0.20;;;5.50;99.90;;;;;;5030557;28;20084;-75
2022/11/21 04:19:16;;;;;;;0.20;0.20;;;5.50;99.90;;;;;;5026925;28;20037;-75
2022/11/21 04:21:42;;;;;;;0.90;0.30;;;5.50;99.90;;;;;;5032951;28;20029;-74
2022/11/21 04:24:08;;;;;;;0.20;0.20;;;5.50;99.90;;;;;;5028425;28;20041;-75
2022/11/21 04:26:33;;;;;;;0.82;0.20;;;5.50;99.90;;;;;;5026405;28;20037;-74
2022/11/21 04:29:02;;;;;;;1.27;0.30;;;5.40;99.90;;;;;;5030385;28;20304;-75
2022/11/21 04:31:27;;;;;;;0.38;0.10;;;5.40;99.90;;;;;;5031542;28;20021;-75
2022/11/21 04:33:53;;;;;;;0.25;0.10;;;5.40;99.90;;;;;;5029991;28;20031;-74
2022/11/21 04:36:18;;;;;;;0.20;0.20;;;5.40;99.90;;;;;;5032868;28;20018;-74
2022/11/21 04:38:44;;;;;;;0.20;0.17;;;5.40;99.90;;;;;;5032385;28;20091;-75
2022/11/21 04:41:10;;;;;;;0.80;0.20;;;5.30;99.90;;;;;;5029833;28;20068;-74
2022/11/21 04:43:44;;;;;;;0.30;0.20;;;5.30;99.90;;;;;;5025800;28;20109;-74
2022/11/21 04:46:13;;;;;;;1.15;0.20;;;5.20;99.90;;;;;;5032434;28;20044;-74
2022/11/21 04:48:45;;;;;;;0.52;0.35;;;5.20;99.90;;;;;;5028492;28;20501;-74
2022/11/21 04:51:19;;;;;;;2.10;0.20;;;5.20;99.90;;;;;;5028480;28;20112;-74
2022/11/21 04:53:45;;;;;;;0.70;0.15;;;5.20;99.90;;;;;;5028147;28;20033;-74
2022/11/21 04:56:15;;;;;;;0.20;0.17;;;5.20;99.90;;;;;;5034919;28;20382;-74
2022/11/21 04:58:41;;;;;;;0.73;0.30;;;5.20;99.90;;;;;;5026720;28;20059;-73
2022/11/21 05:01:10;;;;;;;0.65;0.10;;;5.20;99.90;;;;;;5029292;28;20359;-75
2022/11/21 05:03:36;;;;;;;0.22;0.10;;;5.20;99.90;;;;;;5030713;28;20566;-74
2022/11/21 05:06:04;;;;;;;0.50;0.20;;;5.20;99.90;;;;;;5027893;28;20112;-75
2022/11/21 05:08:33;;;;;;;1.05;0.20;;;5.20;99.90;;;;;;5025760;28;20542;-74
2022/11/21 05:13:46;;;;;;;0.65;0.10;;;5.20;99.90;;;;;;5025164;28;20064;-74
2022/11/21 05:16:11;;;;;;;0.70;0.20;;;5.20;99.90;;;;;;5027554;28;20030;-74
2022/11/21 05:18:43;;;;;;;0.80;0.30;;;5.20;99.90;;;;;;5031346;28;20107;-74
2022/11/21 05:21:14;;;;;;;1.00;0.20;;;5.20;99.90;;;;;;5027252;28;20115;-75
2022/11/21 05:23:40;;;;;;;1.92;0.40;;;5.20;99.90;;;;;;5037481;28;20381;-75
2022/11/21 05:26:08;;;;;;;0.70;0.32;;;5.10;99.90;;;;;;5030825;28;20033;-74
2022/11/21 05:28:34;;;;;;;0.22;0.20;;;5.10;99.90;;;;;;5023442;28;20034;-74
2022/11/21 05:30:59;;;;;;;0.60;0.40;;;5.10;99.90;;;;;;5028756;28;20242;-75
2022/11/21 05:33:32;;;;;;;0.70;0.30;;;5.10;99.90;;;;;;5029925;28;20028;-75
2022/11/21 05:36:00;;;;;;;0.77;0.40;;;5.10;99.90;;;;;;5047057;28;20509;-75
2022/11/21 05:38:26;;;;;;;0.60;0.28;;;5.10;99.90;;;;;;5022790;28;20029;-77
2022/11/21 05:40:52;;;;;;;0.95;0.32;;;5.10;99.90;;;;;;5029855;28;20486;-76
2022/11/21 05:46:02;;;;;;;0.57;0.30;;;5.10;99.90;;;;;;5026259;28;20033;-74
2022/11/21 05:48:27;;;;;;;3.17;0.57;;;5.10;99.90;;;;;;5024631;28;20406;-74
2022/11/21 05:50:53;;;;;;;1.02;0.50;;;5.10;99.90;;;;;;5027830;28;20040;-73
2022/11/21 05:53:19;;;;;;;1.95;0.60;;;5.10;99.90;;;;;;5026881;28;20127;-74
2022/11/21 05:55:45;;;;;;;1.95;0.95;;;5.20;99.90;;;;;;5026092;28;20034;-69
2022/11/21 05:58:13;;;;;;;3.08;1.38;;;5.30;99.90;;;;;;5027474;28;20030;-73
2022/11/21 06:00:39;;;;;;;3.25;0.63;;;5.30;99.90;;;;;;5024708;28;20037;-72
2022/11/21 06:03:29;;;;;;;4.18;1.20;;;5.30;99.90;;;;;;5024691;28;20029;-73
2022/11/21 06:06:11;;;;;;;5.03;1.73;;;5.30;99.90;;;;;;5028238;28;20033;-73
2022/11/21 06:08:41;;;;;;;4.03;1.08;;;5.30;99.90;;;;;;5026456;28;20025;-73
2022/11/21 06:11:15;;;;;;;6.35;2.17;;;5.20;99.90;;;;;;5028142;28;20127;-74
2022/11/21 06:13:41;;;;;;;4.10;1.75;;;5.20;99.90;;;;;;5027481;28;20598;-73
2022/11/21 06:16:15;;;;;;;2.58;1.00;;;5.10;99.90;;;;;;5028151;28;20029;-73
2022/11/21 06:18:44;;;;;;;2.28;0.82;;;5.10;99.90;;;;;;5026615;28;20025;-73
2022/11/21 06:21:15;;;;;;;4.65;1.10;;;5.10;99.90;;;;;;5028112;28;20422;-73
2022/11/21 06:23:44;;;;;;;5.05;1.50;;;5.10;99.90;;;;;;5029423;28;20029;-73
2022/11/21 06:26:15;;;;;;;3.17;0.82;;;5.10;99.90;;;;;;5029362;28;20045;-75
2022/11/21 06:28:45;;;;;;;3.33;1.55;;;5.10;99.90;;;;;;5029891;28;20061;-74
2022/11/21 06:31:13;;;;;;;3.15;1.23;;;5.10;99.90;;;;;;5024367;28;20053;-73
2022/11/21 06:33:40;;;;;;;2.13;0.70;;;5.00;99.90;;;;;;5026832;28;20022;-73
2022/11/21 06:36:11;;;;;;;1.80;0.70;;;5.00;99.90;;;;;;5028939;28;20018;-74
2022/11/21 06:38:37;;;;;;;1.13;0.60;;;5.00;99.90;;;;;;5032608;28;20026;-73
2022/11/21 06:41:20;;;;;;;3.10;0.98;;;5.00;99.90;;;;;;5033937;28;20112;-72
2022/11/21 06:43:46;;;;;;;2.85;0.93;;;5.00;99.90;;;;;;5032282;28;20054;-73
2022/11/21 06:46:13;;;;;;;3.35;0.85;;;5.10;99.90;;;;;;5029228;28;20036;-72
2022/11/21 06:48:39;;;;;;;3.95;0.98;;;5.10;99.90;;;;;;5027193;28;20067;-73
2022/11/21 06:51:05;;;;;;;1.90;0.50;;;5.10;99.90;;;;;;5028417;28;20088;-74
2022/11/21 06:53:34;;;;;;;2.17;0.60;;;5.10;99.90;;;;;;5029109;28;20430;-74
2022/11/21 06:56:03;;;;;;;2.08;0.80;;;5.10;99.90;;;;;;5029818;28;20116;-73
2022/11/21 06:58:30;;;;;;;2.10;0.75;;;5.10;99.90;;;;;;5025106;28;20025;-73
2022/11/21 07:01:02;;;;;;;1.20;0.50;;;5.10;99.90;;;;;;5030972;28;20040;-75
2022/11/21 07:03:28;;;;;;;1.38;0.50;;;5.10;99.90;;;;;;5021447;28;20022;-74
2022/11/21 07:05:57;;;;;;;2.33;1.00;;;5.10;99.90;;;;;;5015558;28;20037;-73
2022/11/21 07:08:22;;;;;;;2.83;0.73;;;5.20;99.90;;;;;;5028260;28;20076;-73
2022/11/21 07:10:48;;;;;;;2.65;0.60;;;5.20;99.90;;;;;;5038646;28;20038;-74
2022/11/21 07:13:23;;;;;;;5.10;1.00;;;5.20;99.90;;;;;;5027460;28;20053;-73
2022/11/21 07:15:51;;;;;;;2.03;0.73;;;5.20;99.90;;;;;;5025299;28;20344;-72
2022/11/21 07:18:18;;;;;;;5.85;1.20;;;5.30;99.90;;;;;;5028049;28;20079;-73
2022/11/21 07:20:43;;;;;;;3.50;1.00;;;5.30;99.90;;;;;;5032648;28;20033;-73
2022/11/21 07:23:09;;;;;;;2.85;0.88;;;5.30;99.90;;;;;;5030327;28;20025;-74
2022/11/21 07:25:35;;;;;;;2.58;0.90;;;5.30;99.90;;;;;;5024865;28;20030;-74
2022/11/21 07:28:02;;;;;;;3.30;0.90;;;5.40;99.90;;;;;;5029025;28;20047;-73
2022/11/21 07:30:28;;;;;;;4.50;0.90;;;5.40;99.90;;;;;;5026432;28;20112;-74
2022/11/21 07:32:58;;;;;;;6.72;0.70;;;5.50;99.90;;;;;;5028278;28;20663;-73
2022/11/21 07:35:28;;;;;;;3.53;0.90;;;5.50;99.90;;;;;;5025119;28;20034;-74
2022/11/21 07:37:54;;;;;;;3.83;0.98;;;5.50;99.90;;;;;;5023092;28;20022;-74
2022/11/21 07:40:20;;;;;;;5.28;1.02;;;5.50;99.90;;;;;;5022723;28;20315;-74
2022/11/21 07:42:49;;;;;;;2.28;0.80;;;5.60;99.90;;;;;;5026423;28;20076;-73
2022/11/21 07:45:15;;;;;;;6.03;1.20;;;5.50;99.90;;;;;;5026988;28;20087;-73
2022/11/21 07:47:44;;;;;;;8.45;1.52;;;5.60;99.90;;;;;;5025835;28;20041;-73
2022/11/21 07:50:11;;;;;;;7.18;1.17;;;5.60;99.90;;;;;;5031533;28;20038;-73
2022/11/21 07:52:37;;;;;;;4.07;1.85;;;5.60;99.90;;;;;;5032078;28;20117;-73
2022/11/21 07:55:04;;;;;;;5.90;1.20;;;5.60;99.90;;;;;;5034858;28;20029;-74
2022/11/21 07:57:31;;;;;;;10.18;1.27;;;5.60;99.90;;;;;;5029374;28;20029;-73
2022/11/21 07:59:56;;;;;;;2.50;0.68;;;5.70;99.90;;;;;;5030362;28;21506;-73
2022/11/21 08:02:28;;;;;;;3.78;1.20;;;5.70;99.90;;;;;;5031840;28;20037;-74
2022/11/21 08:04:53;;;;;;;3.72;0.98;;;5.70;99.90;;;;;;5036009;28;20107;-73
2022/11/21 08:07:23;;;;;;;8.55;1.35;;;5.80;99.90;;;;;;5030537;28;20065;-74
2022/11/21 08:09:49;;;;;;;8.32;1.25;;;5.80;99.90;;;;;;5029956;28;20057;-74
2022/11/21 08:12:15;;;;;;;7.40;1.23;;;5.90;99.90;;;;;;5033421;28;20186;-73
2022/11/21 08:14:41;;;;;;;7.03;1.20;;;6.00;99.90;;;;;;5030693;28;20032;-73
2022/11/21 08:17:07;;;;;;;4.00;1.10;;;6.00;99.90;;;;;;5032721;28;20478;-73
2022/11/21 08:19:33;;;;;;;2.53;1.00;;;6.10;99.90;;;;;;5035995;28;20153;-72
2022/11/21 08:21:59;;;;;;;3.92;1.10;;;6.10;99.90;;;;;;5030497;28;20482;-74
2022/11/21 08:24:25;;;;;;;4.85;0.73;;;6.20;99.90;;;;;;5036063;28;20026;-72
2022/11/21 08:26:50;;;;;;;2.70;0.93;;;6.20;99.90;;;;;;5030249;28;20037;-74
2022/11/21 08:29:16;;;;;;;4.80;0.93;;;6.20;99.90;;;;;;5034695;28;20508;-74
2022/11/21 08:31:43;;;;;;;7.53;1.15;;;6.20;99.90;;;;;;5031498;28;20478;-73
2022/11/21 08:34:09;;;;;;;6.18;1.70;;;6.20;99.90;;;;;;5031529;28;20025;-72
2022/11/21 08:36:35;;;;;;;6.45;1.38;;;6.30;99.90;;;;;;5031312;28;20525;-73
2022/11/21 08:39:00;;;;;;;4.57;0.98;;;6.30;99.90;;;;;;5028414;28;20021;-73
2022/11/21 08:44:10;;;;;;;;;;;6.40;99.90;;;;;;5032104;28;20043;-73
2022/11/21 08:46:42;;;;;;;2.58;0.95;;;6.50;99.90;;;;;;5029546;28;20415;-74
2022/11/21 08:49:10;;;;;;;7.10;1.05;;;6.60;99.90;;;;;;5026934;28;20382;-73
2022/11/21 08:51:42;;;;;;;4.22;1.30;;;6.60;99.90;;;;;;5032046;28;20032;-74
2022/11/21 08:54:08;;;;;;;4.80;1.15;;;6.70;99.90;;;;;;5028789;28;20151;-73
2022/11/21 08:56:36;;;;;;;5.28;1.23;;;6.80;99.90;;;;;;5031146;28;20028;-74
2022/11/21 08:59:06;;;;;;;2.58;1.00;;;6.80;99.90;;;;;;5027827;28;20239;-74
2022/11/21 09:01:32;;;;;;;3.85;1.00;;;6.90;99.90;;;;;;5028083;28;20029;-74
2022/11/21 09:03:57;;;;;;;4.43;1.35;;;7.00;99.90;;;;;;5033277;28;20048;-74
2022/11/21 09:06:29;;;;;;;4.05;1.30;;;7.00;99.90;;;;;;5029218;28;20537;-72
2022/11/21 09:08:55;;;;;;;4.88;1.10;;;7.00;99.90;;;;;;5031093;28;20030;-74
2022/11/21 09:11:27;;;;;;;3.40;1.35;;;7.10;99.90;;;;;;5029292;28;20501;-74
2022/11/21 09:19:25;;;;;;;2.97;0.80;;;7.30;99.90;;;;;;5029398;28;20076;-75
2022/11/21 09:21:51;;;;;;;2.00;0.70;;;7.30;99.90;;;;;;5033372;28;20022;-72
2022/11/21 09:24:20;;;;;;;4.80;0.88;;;7.30;99.90;;;;;;5029707;28;20037;-73
2022/11/21 09:26:48;;;;;;;4.25;1.20;;;7.20;99.90;;;;;;5027710;28;20521;-73
2022/11/21 09:29:16;;;;;;;3.65;1.08;;;7.10;99.90;;;;;;5030912;28;20509;-74
2022/11/21 09:31:43;;;;;;;8.05;1.55;;;7.10;99.90;;;;;;5024135;28;20079;-74
2022/11/21 09:34:09;;;;;;;4.55;1.10;;;7.00;99.90;;;;;;5031751;28;20041;-74
2022/11/21 09:36:35;;;;;;;2.80;0.70;;;7.00;99.90;;;;;;5028802;28;20041;-74
2022/11/21 09:39:00;;;;;;;4.80;0.80;;;6.90;99.90;;;;;;5029046;28;20512;-74
2022/11/21 09:41:51;;;;;;;4.30;1.00;;;6.90;99.90;;;;;;5033589;28;20025;-73
2022/11/21 09:44:44;;;;;;;4.45;0.80;;;6.90;99.90;;;;;;5027004;28;20033;-74
2022/11/21 09:47:31;;;;;;;3.35;1.00;;;7.00;99.90;;;;;;5025207;28;20064;-74
2022/11/21 09:50:12;;;;;;;4.47;1.08;;;7.00;99.90;;;;;;5030191;28;20033;-73
2022/11/21 09:52:40;;;;;;;3.85;1.20;;;7.00;99.90;;;;;;5029471;28;20145;-72
2022/11/21 09:55:20;;;;;;;8.00;1.15;;;7.10;99.90;;;;;;5027681;28;20581;-73
2022/11/21 09:57:48;;;;;;;5.03;1.30;;;7.20;99.90;;;;;;5030024;28;20030;-73
2022/11/21 10:00:22;;;;;;;4.95;1.13;;;7.20;99.90;;;;;;5028602;28;20030;-75
2022/11/21 10:02:55;;;;;;;4.75;0.88;;;7.20;99.90;;;;;;5026754;28;20034;-72
2022/11/21 10:05:45;;;;;;;2.47;0.60;;;7.30;99.90;;;;;;5018176;28;20541;-75
2022/11/21 10:08:23;;;;;;;5.13;1.45;;;7.30;99.90;;;;;;5027676;28;20068;-75
2022/11/21 10:11:26;;;;;;;7.65;1.50;;;7.40;99.90;;;;;;5021071;28;20036;-73
2022/11/21 10:14:07;;;;;;;3.38;0.80;;;7.40;99.90;;;;;;5031662;28;20021;-73
2022/11/21 10:16:59;;;;;;;3.05;1.13;;;7.50;99.90;;;;;;5031598;28;20025;-76
2022/11/21 10:20:10;;;;;;;3.70;1.05;;;7.60;99.90;;;;;;5027745;28;20024;-74
2022/11/21 10:23:01;;;;;;;5.93;1.17;;;7.60;99.90;;;;;;5014773;28;20044;-74
2022/11/21 10:26:06;;;;;;;8.10;1.10;;;7.60;99.90;;;;;;5033798;28;20398;-75
2022/11/21 10:28:45;;;;;;;6.93;2.20;;;7.70;99.90;;;;;;5027048;28;20056;-75
2022/11/21 10:31:13;;;;;;;7.68;1.33;;;7.70;99.90;;;;;;5023552;28;20471;-75
2022/11/21 10:33:39;;;;;;;5.82;1.20;;;7.70;99.90;;;;;;5025765;28;20028;-73
2022/11/21 10:36:36;;;;;;;3.83;1.25;;;7.80;99.90;;;;;;5029160;28;20434;-73
2022/11/21 10:39:39;;;;;;;6.15;1.50;;;7.80;99.90;;;;;;5026683;28;20022;-72
2022/11/21 10:42:29;;;;;;;7.15;1.05;;;7.80;99.90;;;;;;5025089;28;20433;-74
2022/11/21 10:45:18;;;;;;;3.05;1.00;;;7.90;99.90;;;;;;5026761;28;20558;-75
2022/11/21 10:47:50;;;;;;;4.28;1.10;;;7.90;99.90;;;;;;5019916;28;20052;-75
2022/11/21 10:50:30;;;;;;;5.35;0.98;;;8.00;99.90;;;;;;5021601;28;20025;-76
2022/11/21 10:56:13;;;;;;;3.20;0.95;;;8.00;99.90;;;;;;5019072;28;20479;-74
2022/11/21 10:58:54;;;;;;;7.60;1.30;;;8.10;99.90;;;;;;5019784;28;20084;-73
2022/11/21 11:01:30;;;;;;;4.63;0.80;;;8.20;99.90;;;;;;5022503;28;20278;-73
2022/11/21 11:04:16;;;;;;;3.13;0.80;;;8.30;99.90;;;;;;5023152;28;20029;-73
2022/11/21 11:06:46;;;;;;;5.20;1.20;;;8.30;99.90;;;;;;5025101;28;20520;-74
2022/11/21 11:09:31;;;;;;;5.82;1.15;;;8.40;99.90;;;;;;5024405;28;20030;-74
2022/11/21 11:15:24;;;;;;;4.25;0.77;;;8.40;99.90;;;;;;5025193;28;20031;-74
2022/11/21 11:17:59;;;;;;;4.63;0.95;;;8.40;99.90;;;;;;5022902;28;20026;-74
2022/11/21 11:20:27;;;;;;;7.88;1.65;;;8.40;99.90;;;;;;5024033;28;20025;-73
2022/11/21 11:22:56;;;;;;;4.72;1.10;;;8.30;99.90;;;;;;5024621;28;20059;-73
2022/11/21 11:25:22;;;;;;;2.67;1.00;;;8.30;99.90;;;;;;5024415;28;20037;-74
2022/11/21 11:27:51;;;;;;;3.50;0.80;;;8.20;99.90;;;;;;5025791;28;20100;-73
2022/11/21 11:30:18;;;;;;;3.17;0.80;;;8.20;99.90;;;;;;5024891;28;20052;-72
2022/11/21 11:32:50;;;;;;;5.35;1.50;;;8.20;99.90;;;;;;5023507;28;20583;-73
2022/11/21 11:35:15;;;;;;;2.22;0.90;;;8.20;99.90;;;;;;5023179;28;20482;-73
2022/11/21 11:37:50;;;;;;;3.40;0.85;;;8.20;99.90;;;;;;5020929;28;20035;-73
2022/11/21 11:40:34;;;;;;;6.60;1.20;;;8.30;99.90;;;;;;5021578;28;20022;-72
2022/11/21 11:48:58;;;;;;;9.10;1.85;;;8.20;99.90;;;;;;5016277;28;20253;-73
2022/11/21 11:51:51;;;;;;;3.10;0.90;;;8.30;99.90;;;;;;5025210;28;20028;-73
2022/11/21 11:54:42;;;;;;;4.03;1.23;;;8.30;99.90;;;;;;5024688;28;20018;-73
2022/11/21 11:57:09;;;;;;;4.75;1.30;;;8.30;99.90;;;;;;5045479;23;20049;-77
2022/11/21 11:59:48;;;;;;;4.50;0.88;;;8.40;99.90;;;;;;5044224;28;20059;-77
2022/11/21 12:02:56;;;;;;;7.13;1.15;;;8.40;99.90;;;;;;5048860;28;20026;-77
2022/11/21 12:05:27;;;;;;;5.05;1.25;;;8.40;99.90;;;;;;5047847;28;20082;-77
2022/11/21 12:08:04;;;;;;;7.65;1.65;;;8.50;99.90;;;;;;5050015;28;20028;-77
2022/11/21 12:13:47;;;;;;;5.38;1.35;;;8.60;99.90;;;;;;5052518;28;20523;-77
2022/11/21 12:16:25;;;;;;;5.55;0.95;;;8.60;99.90;;;;;;5051139;28;20087;-77
2022/11/21 12:19:09;;;;;;;2.60;1.10;;;8.70;99.90;;;;;;5042674;28;20477;-77
2022/11/21 12:21:37;;;;;;;;;;;8.70;99.90;;;;;;5048061;28;20051;-76
2022/11/21 12:24:10;;;;;;;4.60;1.20;;;8.70;99.90;;;;;;5046818;28;20122;-77
2022/11/21 12:27:16;;;;;;;6.20;2.42;;;8.70;99.90;;;;;;5050722;28;20031;-77
2022/11/21 12:30:13;;;;;;;5.85;1.10;;;8.70;99.90;;;;;;5050047;28;20025;-76
2022/11/21 12:32:54;;;;;;;4.63;1.10;;;8.80;99.90;;;;;;5043737;28;20478;-77
2022/11/21 12:35:58;;;;;;;5.15;1.00;;;8.80;99.90;;;;;;5045682;28;20028;-78
2022/11/21 12:38:29;;;;;;;3.70;1.10;;;8.90;99.90;;;;;;5050358;28;20053;-76
2022/11/21 12:44:38;;;;;;;5.00;1.00;;;9.00;99.90;;;;;;5058135;28;20553;-79
2022/11/21 12:47:04;;;;;;;3.38;1.00;;;9.00;99.90;;;;;;5055179;28;20048;-76
2022/11/21 12:55:49;;;;;;;4.78;1.10;;;9.00;99.90;;;;;;5045412;28;20028;-77
2022/11/21 12:58:35;;;;;;;6.65;1.27;;;9.10;99.90;;;;;;5045492;28;20025;-77
2022/11/21 13:01:42;;;;;;;3.40;0.85;;;9.10;99.90;;;;;;5048643;28;20029;-78
2022/11/21 13:04:41;;;;;;;4.57;1.45;;;9.20;99.90;;;;;;5047819;28;20017;-77
2022/11/21 13:07:07;;;;;;;4.55;0.80;;;9.30;99.90;;;;;;5053769;28;20043;-77
2022/11/21 13:09:47;;;;;;;3.95;1.13;;;9.30;99.90;;;;;;5052832;28;20047;-77
2022/11/21 13:12:28;;;;;;;4.00;1.00;;;9.50;99.90;;;;;;5055414;28;20102;-77
2022/11/21 13:15:26;;;;;;;2.15;0.90;;;9.50;99.90;;;;;;5052207;28;20055;-76
2022/11/21 13:18:23;;;;;;;5.50;1.13;;;9.60;99.90;;;;;;5058155;28;20031;-76
2022/11/21 13:20:50;;;;;;;4.20;1.10;;;9.70;99.90;;;;;;5052162;28;20633;-76
2022/11/21 13:23:34;;;;;;;6.90;1.40;;;9.70;99.90;;;;;;5054987;28;20024;-76
2022/11/21 13:26:00;;;;;;;7.03;2.03;;;9.70;99.90;;;;;;5048056;28;20043;-77
2022/11/21 13:28:31;;;;;;;6.50;1.20;;;9.60;99.90;;;;;;5052688;28;20021;-77
2022/11/21 13:30:58;;;;;;;3.15;1.15;;;9.50;99.90;;;;;;5046594;28;20516;-77
2022/11/21 13:33:33;;;;;;;8.20;1.00;;;9.40;99.90;;;;;;5048981;28;20094;-76
2022/11/21 13:36:26;;;;;;;6.22;0.85;;;9.30;99.90;;;;;;5052432;28;20033;-77
2022/11/21 13:38:55;;;;;;;5.72;1.38;;;9.20;99.90;;;;;;5050634;28;20059;-76
2022/11/21 13:44:29;;;;;;;2.90;0.88;;;9.00;99.90;;;;;;5051430;28;20132;-77
2022/11/21 13:47:13;;;;;;;4.93;1.00;;;8.90;99.90;;;;;;5051575;28;20031;-77
2022/11/21 13:50:19;;;;;;;5.45;0.98;;;8.80;99.90;;;;;;5046679;28;20038;-77
2022/11/21 13:53:21;;;;;;;4.45;0.90;;;8.70;99.90;;;;;;5049308;28;20033;-78
2022/11/21 13:55:57;;;;;;;5.18;1.40;;;8.60;99.90;;;;;;5046965;28;20037;-78
2022/11/21 13:58:41;;;;;;;6.72;1.35;;;8.50;99.90;;;;;;5050064;28;20079;-77
2022/11/21 14:01:38;;;;;;;4.18;1.58;;;8.50;99.90;;;;;;5050477;28;20029;-76
2022/11/21 14:04:43;;;;;;;10.07;2.30;;;8.40;99.90;;;;;;5047703;28;20112;-78